createdAt,value
2022-11-15T00:02:16.385Z,98286.05
2022-11-15T00:05:03.240Z,98288.35
2022-11-15T00:07:55.674Z,98283.09
2022-11-15T00:10:42.757Z,98285.27
2022-11-15T00:13:31.155Z,98276.84
2022-11-15T00:16:18.658Z,98278.72
2022-11-15T00:19:05.271Z,98275.37
2022-11-15T00:21:52.972Z,98275.36
2022-11-15T00:24:39.412Z,98271.86
2022-11-15T00:27:26.115Z,98270.50
2022-11-15T00:30:13.744Z,98265.63
2022-11-15T00:33:07.282Z,98264.31
2022-11-15T00:35:53.885Z,98265.73
2022-11-15T00:38:41.700Z,98261.38
2022-11-15T00:41:28.196Z,98259.56
2022-11-15T00:44:15.134Z,98259.76
2022-11-15T00:47:01.654Z,98254.98
2022-11-15T00:49:48.248Z,98258.61
2022-11-15T00:52:34.740Z,98255.08
2022-11-15T00:55:21.143Z,98252.75
2022-11-15T00:58:07.524Z,98250.36
2022-11-15T01:00:54.086Z,98250.70
2022-11-15T01:03:44.508Z,98252.82
2022-11-15T01:06:30.982Z,98248.98
2022-11-15T01:09:17.720Z,98247.77
2022-11-15T01:12:04.603Z,98248.40
2022-11-15T01:14:51.316Z,98246.33
2022-11-15T01:17:38.071Z,98242.06
2022-11-15T01:20:24.593Z,98240.43
2022-11-15T01:23:11.608Z,98233.61
2022-11-15T01:26:02.551Z,98230.79
2022-11-15T01:28:49.086Z,98225.85
2022-11-15T01:31:36.557Z,98222.61
2022-11-15T01:34:23.280Z,98216.53
2022-11-15T01:37:11.173Z,98216.27
2022-11-15T01:39:57.814Z,98213.49
2022-11-15T01:42:44.437Z,98208.84
2022-11-15T01:45:32.529Z,98204.57
2022-11-15T01:48:18.936Z,98201.63
2022-11-15T01:51:10.428Z,98202.83
2022-11-15T01:54:03.325Z,98198.59
2022-11-15T01:57:07.801Z,98195.36
2022-11-15T01:59:55.365Z,98192.46
2022-11-15T02:02:42.324Z,98187.94
2022-11-15T02:05:31.312Z,98185.77
2022-11-15T02:08:21.078Z,98182.30
2022-11-15T02:11:10.769Z,98180.66
2022-11-15T02:13:59.911Z,98179.62
2022-11-15T02:17:10.887Z,98179.88
2022-11-15T02:20:35.814Z,98178.14
2022-11-15T02:23:27.920Z,98177.57
2022-11-15T02:26:35.622Z,98185.05
2022-11-15T02:29:34.093Z,98181.79
2022-11-15T02:32:32.714Z,98183.02
2022-11-15T02:36:02.575Z,98185.44
2022-11-15T02:39:13.881Z,98185.97
2022-11-15T02:42:29.969Z,98185.98
2022-11-15T02:45:25.560Z,98179.38
2022-11-15T02:48:13.237Z,98180.68
2022-11-15T02:51:01.972Z,98179.94
2022-11-15T02:53:49.278Z,98181.49
2022-11-15T02:56:36.048Z,98184.67
2022-11-15T02:59:45.195Z,98180.14
2022-11-15T03:02:43.706Z,98174.95
2022-11-15T03:05:46.507Z,98180.33
2022-11-15T03:08:41.239Z,98185.42
2022-11-15T03:11:30.948Z,98188.45
2022-11-15T03:14:24.770Z,98189.05
2022-11-15T03:17:24.911Z,98190.44
2022-11-15T03:20:15.616Z,98181.84
2022-11-15T03:23:10.874Z,98184.59
2022-11-15T03:25:59.196Z,98187.11
2022-11-15T03:28:58.654Z,98181.84
2022-11-15T03:31:51.197Z,98177.68
2022-11-15T03:35:18.170Z,98174.17
2022-11-15T03:38:27.515Z,98173.17
2022-11-15T03:41:24.708Z,98173.92
2022-11-15T03:44:36.764Z,98171.32
2022-11-15T03:47:29.004Z,98167.63
2022-11-15T03:50:19.900Z,98165.63
2022-11-15T03:53:06.788Z,98162.30
2022-11-15T03:55:53.715Z,98162.03
2022-11-15T03:58:40.338Z,98155.46
2022-11-15T04:01:26.927Z,98152.29
2022-11-15T04:04:13.696Z,98150.12
2022-11-15T04:07:00.450Z,98151.59
2022-11-15T04:10:06.563Z,98145.72
2022-11-15T04:12:53.195Z,98146.14
2022-11-15T04:15:39.946Z,98144.20
2022-11-15T04:18:26.648Z,98139.24
2022-11-15T04:21:31.744Z,98136.97
2022-11-15T04:24:18.335Z,98138.48
2022-11-15T04:27:05.198Z,98142.79
2022-11-15T04:29:53.891Z,98145.18
2022-11-15T04:32:40.368Z,98137.81
2022-11-15T04:35:27.635Z,98137.39
2022-11-15T04:38:14.784Z,98138.45
2022-11-15T04:41:01.470Z,98135.70
2022-11-15T04:43:48.092Z,98136.40
2022-11-15T04:46:34.621Z,98132.80
2022-11-15T04:49:23.327Z,98128.95
2022-11-15T04:52:10.012Z,98128.52
2022-11-15T04:54:57.165Z,98125.50
2022-11-15T04:57:43.831Z,98125.80
2022-11-15T05:00:30.872Z,98123.20
2022-11-15T05:03:36.646Z,98125.98
2022-11-15T05:06:23.666Z,98124.17
2022-11-15T05:09:10.126Z,98127.17
2022-11-15T05:11:56.740Z,98127.11
2022-11-15T05:14:43.311Z,98125.70
2022-11-15T05:17:29.982Z,98126.43
2022-11-15T05:20:16.867Z,98123.98
2022-11-15T05:23:03.899Z,98124.46
2022-11-15T05:25:51.225Z,98122.99
2022-11-15T05:28:39.427Z,98119.13
2022-11-15T05:31:27.362Z,98122.85
2022-11-15T05:34:13.514Z,98127.83
2022-11-15T05:37:01.586Z,98128.24
2022-11-15T05:39:48.059Z,98128.23
2022-11-15T05:42:36.412Z,98125.09
2022-11-15T05:45:26.965Z,98128.82
2022-11-15T05:48:14.711Z,98124.29
2022-11-15T05:51:03.250Z,98122.05
2022-11-15T05:53:53.245Z,98119.75
2022-11-15T05:56:40.513Z,98112.70
2022-11-15T05:59:29.540Z,98116.29
2022-11-15T06:02:16.860Z,98120.65
2022-11-15T06:05:03.877Z,98117.20
2022-11-15T06:07:50.374Z,98121.61
2022-11-15T06:10:36.909Z,98117.52
2022-11-15T06:13:23.563Z,98115.06
2022-11-15T06:16:11.843Z,98114.10
2022-11-15T06:19:00.795Z,98117.00
2022-11-15T06:21:47.713Z,98120.02
2022-11-15T06:24:35.256Z,98123.10
2022-11-15T06:27:23.461Z,98125.14
2022-11-15T06:30:12.146Z,98124.50
2022-11-15T06:33:05.591Z,98125.80
2022-11-15T06:35:52.320Z,98124.48
2022-11-15T06:38:38.951Z,98127.83
2022-11-15T06:41:26.028Z,98126.94
2022-11-15T06:44:13.837Z,98119.21
2022-11-15T06:47:00.412Z,98121.36
2022-11-15T06:49:47.374Z,98121.88
2022-11-15T06:52:34.053Z,98123.67
2022-11-15T06:55:20.837Z,98121.91
2022-11-15T06:58:08.130Z,98121.20
2022-11-15T07:00:55.567Z,98115.30
2022-11-15T07:03:43.236Z,98113.45
2022-11-15T07:06:29.611Z,98103.17
2022-11-15T07:09:16.119Z,98097.48
2022-11-15T07:12:07.556Z,98101.23
2022-11-15T07:14:54.612Z,98103.26
2022-11-15T07:17:40.950Z,98095.96
2022-11-15T07:20:27.759Z,98095.39
2022-11-15T07:23:15.423Z,98092.55
2022-11-15T07:26:01.966Z,98093.61
2022-11-15T07:28:48.762Z,98099.65
2022-11-15T07:31:35.100Z,98098.24
2022-11-15T07:34:22.602Z,98094.41
2022-11-15T07:37:09.603Z,98094.73
2022-11-15T07:39:56.253Z,98095.38
2022-11-15T07:42:57.236Z,98092.34
2022-11-15T07:45:45.159Z,98089.70
2022-11-15T07:48:43.472Z,98089.33
2022-11-15T07:51:30.585Z,98087.05
2022-11-15T07:54:18.474Z,98088.29
2022-11-15T07:57:07.721Z,98086.77
2022-11-15T07:59:55.000Z,98088.73
2022-11-15T08:02:42.617Z,98087.64
2022-11-15T08:05:29.468Z,98083.23
2022-11-15T08:08:16.964Z,98081.76
2022-11-15T08:11:04.349Z,98075.39
2022-11-15T08:13:51.677Z,98073.92
2022-11-15T08:16:38.275Z,98072.87
2022-11-15T08:19:24.865Z,98066.86
2022-11-15T08:22:11.242Z,98065.48
2022-11-15T08:24:57.844Z,98059.55
2022-11-15T08:27:44.823Z,98054.59
2022-11-15T08:30:35.712Z,98052.15
2022-11-15T08:33:22.003Z,98052.90
2022-11-15T08:36:14.763Z,98050.83
2022-11-15T08:39:01.740Z,98039.61
2022-11-15T08:41:49.051Z,98035.37
2022-11-15T08:44:35.942Z,98042.17
2022-11-15T08:47:25.057Z,98040.27
2022-11-15T08:50:11.901Z,98037.75
2022-11-15T08:53:06.146Z,98030.83
2022-11-15T08:58:30.501Z,98023.80
2022-11-15T09:01:21.098Z,98019.94
2022-11-15T09:04:07.769Z,98018.61
2022-11-15T09:06:54.948Z,98017.25
2022-11-15T09:09:42.295Z,98014.42
2022-11-15T09:12:29.689Z,98017.80
2022-11-15T09:15:18.067Z,98011.23
2022-11-15T09:18:05.057Z,98012.40
2022-11-15T09:20:51.619Z,98009.45
2022-11-15T09:23:38.432Z,98002.63
2022-11-15T09:26:26.265Z,98005.29
2022-11-15T09:29:13.300Z,98002.07
2022-11-15T09:32:03.173Z,97998.21
2022-11-15T09:34:50.593Z,97986.17
2022-11-15T09:37:37.477Z,97978.38
2022-11-15T09:40:27.381Z,97972.64
2022-11-15T09:43:35.954Z,97965.73
2022-11-15T09:46:53.902Z,97958.47
2022-11-15T09:49:39.164Z,97956.27
2022-11-15T09:52:14.712Z,97952.58
2022-11-15T09:54:54.703Z,97945.20
2022-11-15T09:57:36.825Z,97943.71
2022-11-15T10:03:22.472Z,97935.33
2022-11-15T10:05:53.110Z,97927.77
2022-11-15T10:09:07.600Z,97922.17
2022-11-15T10:11:39.392Z,97922.39
2022-11-15T10:14:20.042Z,97923.20
2022-11-15T10:16:59.041Z,97923.96
2022-11-15T10:19:55.047Z,97924.91
2022-11-15T10:24:16.197Z,97924.26
2022-11-15T10:25:35.763Z,97909.77
2022-11-15T10:28:23.259Z,97900.23
2022-11-15T10:30:55.069Z,97894.16
2022-11-15T10:33:40.487Z,97889.23
2022-11-15T10:36:09.452Z,97886.88
2022-11-15T10:39:00.154Z,97874.98
2022-11-15T10:41:32.962Z,97871.03
2022-11-15T10:44:13.502Z,97870.39
2022-11-15T10:46:47.847Z,97873.64
2022-11-15T10:49:18.489Z,97867.16
2022-11-15T10:51:56.707Z,97860.82
2022-11-15T10:54:45.093Z,97864.70
2022-11-15T10:57:20.446Z,97870.34
2022-11-15T11:00:01.744Z,97865.61
2022-11-15T11:02:37.674Z,97867.77
2022-11-15T11:05:26.628Z,97860.16
2022-11-15T11:08:20.306Z,97857.45
2022-11-15T11:11:02.221Z,97845.84
2022-11-15T11:13:40.350Z,97838.33
2022-11-15T11:16:14.670Z,97835.89
2022-11-15T11:19:12.418Z,97833.46
2022-11-15T11:22:00.896Z,97828.02
2022-11-15T11:24:31.692Z,97817.09
2022-11-15T11:27:20.328Z,97813.61
2022-11-15T11:30:05.140Z,97810.33
2022-11-15T11:32:46.300Z,97804.36
2022-11-15T11:35:18.674Z,97793.93
2022-11-15T11:37:59.012Z,97788.41
2022-11-15T11:40:37.103Z,97786.11
2022-11-15T11:43:34.558Z,97783.33
2022-11-15T11:46:30.132Z,97784.55
2022-11-15T11:49:28.162Z,97784.77
2022-11-15T11:52:21.069Z,97777.60
2022-11-15T11:55:15.104Z,97762.34
2022-11-15T11:58:15.803Z,97756.83
2022-11-15T12:01:17.750Z,97758.82
2022-11-15T12:04:04.865Z,97754.94
2022-11-15T12:06:58.092Z,97752.59
2022-11-15T12:09:54.854Z,97749.10
2022-11-15T12:12:51.771Z,97745.48
2022-11-15T12:15:27.757Z,97741.48
2022-11-15T12:17:57.924Z,97745.12
2022-11-15T12:20:36.027Z,97746.70
2022-11-15T12:23:14.503Z,97752.52
2022-11-15T12:26:11.204Z,97751.21
2022-11-15T12:29:07.558Z,97744.76
2022-11-15T12:31:44.889Z,97744.23
2022-11-15T12:34:22.186Z,97745.09
2022-11-15T12:36:52.655Z,97745.60
2022-11-15T12:39:22.506Z,97745.25
2022-11-15T12:41:57.379Z,97745.08
2022-11-15T12:44:48.418Z,97740.89
2022-11-15T12:47:25.798Z,97741.42
2022-11-15T12:49:55.279Z,97738.49
2022-11-15T12:52:23.382Z,97736.44
2022-11-15T12:54:54.621Z,97735.07
2022-11-15T12:57:40.605Z,97726.17
2022-11-15T13:00:15.315Z,97727.06
2022-11-15T13:02:47.140Z,97723.45
2022-11-15T13:05:17.172Z,97728.67
2022-11-15T13:07:48.086Z,97728.23
2022-11-15T13:10:31.190Z,97724.88
2022-11-15T13:13:03.757Z,97721.08
2022-11-15T13:15:41.343Z,97714.93
2022-11-15T13:18:45.186Z,97713.67
2022-11-15T13:21:43.199Z,97713.07
2022-11-15T13:24:14.750Z,97710.19
2022-11-15T13:26:45.260Z,97711.85
2022-11-15T13:29:21.150Z,97708.70
2022-11-15T13:31:50.181Z,97706.90
2022-11-15T13:37:21.712Z,97700.16
2022-11-15T13:39:51.401Z,97691.45
2022-11-15T13:42:21.698Z,97688.17
2022-11-15T13:44:59.708Z,97682.34
2022-11-15T13:47:30.007Z,97689.88
2022-11-15T13:49:59.389Z,97689.48
2022-11-15T13:52:36.495Z,97688.42
2022-11-15T13:55:12.197Z,97686.20
2022-11-15T13:57:46.470Z,97684.80
2022-11-15T14:00:27.465Z,97681.54
2022-11-15T14:02:56.508Z,97684.60
2022-11-15T14:05:28.036Z,97687.05
2022-11-15T14:07:58.613Z,97684.46
2022-11-15T14:10:37.784Z,97678.65
2022-11-15T14:13:27.317Z,97681.16
2022-11-15T14:15:55.342Z,97681.05
2022-11-15T14:18:42.580Z,97679.50
2022-11-15T14:21:10.846Z,97676.97
2022-11-15T14:23:41.343Z,97673.02
2022-11-15T14:26:31.042Z,97668.02
2022-11-15T14:29:31.702Z,97670.10
2022-11-15T14:32:44.040Z,97672.46
2022-11-15T14:35:19.355Z,97672.36
2022-11-15T14:37:48.629Z,97667.93
2022-11-15T14:40:23.185Z,97668.23
2022-11-15T14:42:51.445Z,97671.11
2022-11-15T14:45:21.752Z,97668.14
2022-11-15T14:47:50.944Z,97662.42
2022-11-15T14:50:21.496Z,97664.71
2022-11-15T14:52:50.744Z,97660.73
2022-11-15T14:55:25.814Z,97656.77
2022-11-15T14:57:53.863Z,97649.93
2022-11-15T15:00:23.098Z,97650.25
2022-11-15T15:02:54.443Z,97650.02
2022-11-15T15:05:27.201Z,97642.33
2022-11-15T15:07:55.411Z,97642.05
2022-11-15T15:10:39.379Z,97642.83
2022-11-15T15:13:20.482Z,97646.06
2022-11-15T15:15:50.032Z,97644.02
2022-11-15T15:18:20.893Z,97644.09
2022-11-15T15:20:57.538Z,97641.95
2022-11-15T15:23:31.502Z,97639.76
2022-11-15T15:26:00.987Z,97639.79
2022-11-15T15:28:34.231Z,97639.30
2022-11-15T15:31:03.604Z,97635.59
2022-11-15T15:33:32.609Z,97634.20
2022-11-15T15:36:00.773Z,97629.38
2022-11-15T15:38:29.159Z,97633.98
2022-11-15T15:40:59.470Z,97634.33
2022-11-15T15:43:27.690Z,97630.95
2022-11-15T15:45:56.052Z,97626.96
2022-11-15T15:48:24.608Z,97625.27
2022-11-15T15:50:53.323Z,97630.52
2022-11-15T15:53:23.123Z,97630.90
2022-11-15T15:55:51.173Z,97632.13
2022-11-15T15:58:19.332Z,97629.57
2022-11-15T16:00:47.730Z,97628.46
2022-11-15T16:03:16.031Z,97622.78
2022-11-15T16:05:44.832Z,97623.27
2022-11-15T16:08:27.689Z,97619.71
2022-11-15T16:10:56.486Z,97617.42
2022-11-15T16:13:24.783Z,97614.27
2022-11-15T16:15:55.504Z,97615.33
2022-11-15T16:18:23.536Z,97613.85
2022-11-15T16:20:53.324Z,97608.38
2022-11-15T16:23:23.719Z,97600.79
2022-11-15T16:25:56.782Z,97593.98
2022-11-15T16:28:30.800Z,97587.27
2022-11-15T16:31:13.336Z,97589.06
2022-11-15T16:33:42.764Z,97592.71
2022-11-15T16:36:30.835Z,97594.58
2022-11-15T16:39:00.833Z,97599.05
2022-11-15T16:41:28.832Z,97587.79
2022-11-15T16:43:57.823Z,97578.89
2022-11-15T16:46:27.766Z,97572.56
2022-11-15T16:48:56.175Z,97574.23
2022-11-15T16:51:24.257Z,97578.96
2022-11-15T16:53:52.486Z,97575.80
2022-11-15T16:56:20.418Z,97573.64
2022-11-15T16:58:48.669Z,97566.45
2022-11-15T17:01:24.341Z,97571.65
2022-11-15T17:03:52.999Z,97574.28
2022-11-15T17:06:26.711Z,97571.95
2022-11-15T17:08:54.710Z,97576.08
2022-11-15T17:11:22.992Z,97575.08
2022-11-15T17:13:51.019Z,97563.95
2022-11-15T17:16:19.383Z,97564.69
2022-11-15T17:18:53.695Z,97565.76
2022-11-15T17:21:22.959Z,97559.39
2022-11-15T17:23:50.972Z,97563.67
2022-11-15T17:26:40.272Z,97562.56
2022-11-15T17:29:12.127Z,97560.70
2022-11-15T17:31:42.791Z,97559.21
2022-11-15T17:34:10.902Z,97558.52
2022-11-15T17:36:38.922Z,97548.55
2022-11-15T17:39:07.563Z,97538.02
2022-11-15T17:41:35.692Z,97537.73
2022-11-15T17:44:04.200Z,97547.48
2022-11-15T17:46:36.469Z,97549.04
2022-11-15T17:49:05.165Z,97532.10
2022-11-15T17:51:34.439Z,97521.97
2022-11-15T17:54:03.801Z,97518.79
2022-11-15T17:56:32.567Z,97516.62
2022-11-15T17:59:01.057Z,97511.70
2022-11-15T18:01:31.423Z,97503.94
2022-11-15T18:04:02.238Z,97510.68
2022-11-15T18:06:32.840Z,97513.90
2022-11-15T18:09:01.862Z,97516.35
2022-11-15T18:11:35.442Z,97522.83
2022-11-15T18:14:06.098Z,97526.94
2022-11-15T18:16:36.686Z,97524.81
2022-11-15T18:19:22.984Z,97525.33
2022-11-15T18:21:57.737Z,97517.67
2022-11-15T18:24:35.784Z,97519.00
2022-11-15T18:27:08.459Z,97519.61
2022-11-15T18:29:38.344Z,97518.95
2022-11-15T18:32:26.933Z,97514.75
2022-11-15T18:34:55.668Z,97513.81
2022-11-15T18:37:24.225Z,97512.64
2022-11-15T18:39:53.988Z,97519.79
2022-11-15T18:42:22.336Z,97516.71
2022-11-15T18:44:50.395Z,97518.19
2022-11-15T18:47:18.380Z,97512.21
2022-11-15T18:49:46.947Z,97505.95
2022-11-15T18:52:14.891Z,97495.27
2022-11-15T18:54:44.351Z,97492.64
2022-11-15T18:57:12.365Z,97490.67
2022-11-15T18:59:41.002Z,97490.27
2022-11-15T19:02:13.310Z,97490.59
2022-11-15T19:04:42.808Z,97496.92
2022-11-15T19:07:12.652Z,97491.30
2022-11-15T19:09:40.619Z,97487.84
2022-11-15T19:12:08.921Z,97485.76
2022-11-15T19:14:37.023Z,97481.89
2022-11-15T19:17:05.068Z,97477.48
2022-11-15T19:19:34.215Z,97470.45
2022-11-15T19:22:02.559Z,97469.35
2022-11-15T19:24:30.779Z,97471.99
2022-11-15T19:26:59.250Z,97483.36
2022-11-15T19:29:28.407Z,97487.12
2022-11-15T19:31:57.814Z,97486.98
2022-11-15T19:34:25.800Z,97484.57
2022-11-15T19:36:54.155Z,97475.71
2022-11-15T19:39:22.839Z,97463.20
2022-11-15T19:41:52.808Z,97463.04
2022-11-15T19:44:23.467Z,97466.24
2022-11-15T19:46:53.918Z,97471.84
2022-11-15T19:49:23.219Z,97471.77
2022-11-15T19:51:51.285Z,97463.92
2022-11-15T19:54:19.504Z,97459.05
2022-11-15T19:56:47.716Z,97464.23
2022-11-15T19:59:17.759Z,97460.11
2022-11-15T20:01:48.959Z,97453.61
2022-11-15T20:04:17.698Z,97444.16
2022-11-15T20:06:45.761Z,97432.49
2022-11-15T20:09:17.325Z,97425.88
2022-11-15T20:11:47.353Z,97427.73
2022-11-15T20:14:15.642Z,97437.55
2022-11-15T20:16:44.259Z,97433.14
2022-11-15T20:19:16.035Z,97426.40
2022-11-15T20:21:44.391Z,97433.07
2022-11-15T20:24:12.425Z,97448.52
2022-11-15T20:26:40.627Z,97444.23
2022-11-15T20:29:10.102Z,97429.15
2022-11-15T20:31:39.785Z,97421.77
2022-11-15T20:34:07.937Z,97413.36
2022-11-15T20:36:36.127Z,97417.28
2022-11-15T20:39:04.246Z,97418.70
2022-11-15T20:41:33.138Z,97414.74
2022-11-15T20:44:03.245Z,97418.42
2022-11-15T20:46:31.312Z,97413.42
2022-11-15T20:48:59.523Z,97411.59
2022-11-15T20:51:27.392Z,97415.73
2022-11-15T20:53:56.026Z,97412.26
2022-11-15T20:56:24.235Z,97416.54
2022-11-15T20:58:57.127Z,97412.64
2022-11-15T21:01:27.652Z,97407.80
2022-11-15T21:03:56.838Z,97406.66
2022-11-15T21:06:27.006Z,97410.61
2022-11-15T21:09:14.595Z,97404.20
2022-11-15T21:12:01.312Z,97397.20
2022-11-15T21:14:31.367Z,97395.82
2022-11-15T21:17:00.272Z,97396.77
2022-11-15T21:19:34.033Z,97388.95
2022-11-15T21:22:07.840Z,97382.83
2022-11-15T21:24:36.137Z,97379.04
2022-11-15T21:27:04.278Z,97373.61
2022-11-15T21:29:38.912Z,97368.18
2022-11-15T21:32:08.919Z,97361.92
2022-11-15T21:34:38.716Z,97356.08
2022-11-15T21:37:07.131Z,97356.32
2022-11-15T21:39:35.218Z,97353.23
2022-11-15T21:42:03.905Z,97348.27
2022-11-15T21:44:32.188Z,97344.61
2022-11-15T21:47:00.630Z,97345.06
2022-11-15T21:49:29.823Z,97343.08
2022-11-15T21:51:58.036Z,97333.59
2022-11-15T21:54:25.944Z,97328.79
2022-11-15T21:56:54.135Z,97328.39
2022-11-15T21:59:22.073Z,97327.33
2022-11-15T22:02:08.992Z,97327.01
2022-11-15T22:04:37.047Z,97324.36
2022-11-15T22:07:06.469Z,97324.83
2022-11-15T22:09:34.420Z,97325.02
2022-11-15T22:12:02.391Z,97321.23
2022-11-15T22:14:30.400Z,97319.79
2022-11-15T22:16:58.433Z,97321.13
2022-11-15T22:19:26.609Z,97323.82
2022-11-15T22:21:54.684Z,97323.28
2022-11-15T22:24:23.501Z,97320.51
2022-11-15T22:26:52.404Z,97316.61
2022-11-15T22:29:21.178Z,97315.70
2022-11-15T22:31:50.258Z,97315.98
2022-11-15T22:34:18.305Z,97311.36
2022-11-15T22:37:18.389Z,97309.10
2022-11-15T22:39:34.427Z,97299.89
2022-11-15T22:42:02.442Z,97296.00
2022-11-15T22:44:30.469Z,97293.94
2022-11-15T22:46:58.468Z,97296.14
2022-11-15T22:49:26.450Z,97298.36
2022-11-15T22:51:55.924Z,97300.64
2022-11-15T22:54:23.901Z,97299.55
2022-11-15T22:56:51.897Z,97289.85
2022-11-15T22:59:19.891Z,97286.55
2022-11-15T23:01:47.935Z,97279.95
2022-11-15T23:04:16.078Z,97275.50
2022-11-15T23:06:44.049Z,97275.76
2022-11-15T23:09:12.053Z,97272.36
2022-11-15T23:11:58.588Z,97263.66
2022-11-15T23:14:28.967Z,97260.42
2022-11-15T23:16:58.025Z,97258.79
2022-11-15T23:19:26.235Z,97253.52
2022-11-15T23:22:12.930Z,97253.11
2022-11-15T23:24:41.146Z,97256.31
2022-11-15T23:27:09.235Z,97252.13
2022-11-15T23:29:57.467Z,97252.65
2022-11-15T23:32:44.044Z,97249.88
2022-11-15T23:35:12.676Z,97246.96
2022-11-15T23:37:40.718Z,97241.98
2022-11-15T23:40:09.702Z,97230.33
2022-11-15T23:42:37.730Z,97220.81
2022-11-15T23:45:07.045Z,97214.41
2022-11-15T23:47:35.152Z,97216.56
2022-11-15T23:50:04.069Z,97214.10
2022-11-15T23:52:32.540Z,97216.04
2022-11-15T23:55:01.157Z,97227.30
2022-11-15T23:57:29.155Z,97227.29
2022-11-15T23:59:59.330Z,97221.16
